aviador You're here:

VOCB Decoded Metar

COIMBATORE in INDIA
Report Time2017-11-21 00:30:00
UTC Time2017-11-21 00:50:10
Flight Rules ifr IFR
Wind090° at 02 kt
W.Decomp.*RWY 05: 1.5 kt HW 1.3 kt RCW
W.Rank090° ranks 8
Current wind is below 090° avg. (5.7)
Visibility4000 m
Phenomena:Mist
Clouds:Scattered 015 Hf
Expected CloudBase > 1,200 ft AGL from Temp-Dew spread
CeilingNone
Temp25°C (ISA +13)
Dew Point22°C (83% RH)
QNH1013 hPa
Density Alt3,120 ft
Elevation1,309 ft
Report Wrong Elevation
Raw Report
METAR VOCB 210030Z 09002KT 4000 BR SCT015 25/22 Q1013 TEMPO 3000
BR=####018000434####
SAMS31 WMKK 210030

Extra information for VOCB:More info

Metar Taf Metar & Taf Last 4 Metars F.Rules Stats Wind Profile Meteogram Temp Stats Airport Information Weather charts Add Link Nearby VenuesMetar ALERT Operation Metar Decoded Social comments